Main page
METAR-TAF:

METAR-TAF

Airports :

Wilbarger County Airport

Vernon, Texas, United States

latitude: 34-13-32N, longitude: 099-17-01W, elevation: 1266 ft

Current weather observation

The report was made 30 minutes ago, at 16:35 UTC
Wind 16 mph from the South/Southwest
Temperature 90°F
Humidity 49%
Pressure 29.93 in. Hg
Visibility: 10 miles
Clear sky

METAR: KF05 151635Z AUTO 20014KT 10SM CLR 32/20 A2993 RMK AO2 LTG DSNT N T03210199

Time: 12:05 (17:05 UTC)


TAF: missing

Weather observations and forecasts of more than 4000 airports (METAR and TAF reports).

The available stations are represented by yellow and red dots on the map.

Hover mouse over dot to see the name of the station.

Then click to see weather observations and forecasts.

To change the map : click on the green buttons with a black cross to zoom in, on the green button with a dash to zoom out, or on the green arrows for adjacent maps.


METAR-TAF: